Time;durP1;ratioP1;P1;durP2;ratioP2;P2;SDS_P1;SDS_P2;PMS_P1;PMS_P2;Temp;Humidity;BMP_temperature;BMP_pressure;BME280_temperature;BME280_humidity;BME280_pressure;Samples;Min_cycle;Max_cycle;Signal;HPM_P1;HPM_P2
2021/03/07 00:00:45;;;;;;;0.50;0.50;;;-1.00;98.70;;;;;;5073418;28;20200;-71
2021/03/07 00:03:11;;;;;;;0.87;0.87;;;-1.00;98.70;;;;;;5062271;28;20315;-70
2021/03/07 00:05:36;;;;;;;0.40;0.40;;;-1.10;99.00;;;;;;5069460;28;20200;-69
2021/03/07 00:08:02;;;;;;;0.47;0.47;;;-1.10;99.00;;;;;;5064355;28;20181;-70
2021/03/07 00:10:28;;;;;;;0.40;0.40;;;-1.10;98.90;;;;;;5053425;28;20400;-70
2021/03/07 00:12:54;;;;;;;0.40;0.40;;;-1.10;98.90;;;;;;5057633;28;20459;-71
2021/03/07 00:15:21;;;;;;;0.40;0.40;;;-1.20;99.00;;;;;;5052877;28;20192;-69
2021/03/07 00:17:48;;;;;;;0.40;0.40;;;-1.20;99.20;;;;;;5061073;28;20552;-71
2021/03/07 00:20:17;;;;;;;0.50;0.50;;;-1.20;99.50;;;;;;5071954;28;20185;-70
2021/03/07 00:22:43;;;;;;;0.40;0.40;;;-1.30;99.60;;;;;;5062595;28;20705;-70
2021/03/07 00:25:10;;;;;;;0.98;0.98;;;-1.30;99.80;;;;;;5052815;28;20194;-70
2021/03/07 00:27:37;;;;;;;0.40;0.40;;;-1.40;99.90;;;;;;5059798;28;20199;-69
2021/03/07 00:30:08;;;;;;;0.40;0.40;;;-1.40;99.90;;;;;;5072822;28;20247;-69
2021/03/07 00:32:33;;;;;;;0.40;0.40;;;-1.40;99.90;;;;;;5064955;28;20283;-70
2021/03/07 00:34:59;;;;;;;0.50;0.50;;;-1.40;99.90;;;;;;5052761;28;20231;-69
2021/03/07 00:37:25;;;;;;;0.37;0.37;;;-1.50;99.90;;;;;;5056070;28;20166;-69
2021/03/07 00:39:51;;;;;;;0.50;0.50;;;-1.50;99.90;;;;;;5051907;28;20178;-69
2021/03/07 00:42:17;;;;;;;0.40;0.40;;;-1.50;99.90;;;;;;5053499;28;20181;-71
2021/03/07 00:44:42;;;;;;;0.40;0.40;;;-1.50;99.90;;;;;;5051324;28;20641;-69
2021/03/07 00:47:09;;;;;;;0.40;0.40;;;-1.40;99.90;;;;;;5058013;28;20579;-70
2021/03/07 00:49:35;;;;;;;0.60;0.60;;;-1.50;99.90;;;;;;5053177;28;20537;-70
2021/03/07 00:52:02;;;;;;;0.40;0.40;;;-1.50;99.90;;;;;;5067306;28;20202;-70
2021/03/07 00:54:27;;;;;;;0.40;0.40;;;-1.50;99.90;;;;;;5072507;28;20208;-69
2021/03/07 00:56:54;;;;;;;0.40;0.40;;;-1.50;99.90;;;;;;5059608;28;20225;-69
2021/03/07 00:59:20;;;;;;;0.30;0.30;;;-1.50;99.90;;;;;;5053076;28;20617;-70
2021/03/07 01:01:46;;;;;;;0.50;0.50;;;-1.50;99.90;;;;;;5061137;28;20200;-69
2021/03/07 01:04:11;;;;;;;0.40;0.40;;;-1.50;99.90;;;;;;5072293;28;20624;-70
2021/03/07 01:06:37;;;;;;;0.40;0.40;;;-1.50;99.90;;;;;;5062734;28;20217;-70
2021/03/07 01:09:04;;;;;;;0.40;0.40;;;-1.60;99.90;;;;;;5053209;28;20212;-69
2021/03/07 01:11:30;;;;;;;0.40;0.40;;;-1.50;99.90;;;;;;5061115;28;20418;-69
2021/03/07 01:13:56;;;;;;;0.50;0.50;;;-1.60;99.90;;;;;;5073367;28;20161;-69
2021/03/07 01:16:23;;;;;;;0.40;0.40;;;-1.60;99.90;;;;;;5074946;28;20261;-69
2021/03/07 01:18:49;;;;;;;0.40;0.40;;;-1.60;99.90;;;;;;5076643;28;20403;-70
2021/03/07 01:21:15;;;;;;;0.50;0.50;;;-1.70;99.90;;;;;;5069190;28;20177;-70
2021/03/07 01:23:41;;;;;;;0.40;0.40;;;-1.70;99.90;;;;;;5056615;28;20613;-70
2021/03/07 01:26:06;;;;;;;0.40;0.40;;;-1.80;99.90;;;;;;5056463;28;20201;-71
2021/03/07 01:28:32;;;;;;;0.40;0.40;;;-1.80;99.90;;;;;;5056284;28;20648;-70
2021/03/07 01:30:58;;;;;;;0.40;0.40;;;-1.80;99.90;;;;;;5057093;28;20184;-70
2021/03/07 01:33:24;;;;;;;0.40;0.40;;;-1.80;99.90;;;;;;5056248;28;20448;-69
2021/03/07 01:35:50;;;;;;;0.40;0.40;;;-1.90;99.90;;;;;;5067070;28;20521;-70
2021/03/07 01:38:15;;;;;;;0.40;0.40;;;-1.90;99.90;;;;;;5054974;28;20205;-69
2021/03/07 01:40:47;;;;;;;0.40;0.40;;;-1.90;99.90;;;;;;5056212;28;20174;-69
2021/03/07 01:43:13;;;;;;;0.52;0.52;;;-1.90;99.90;;;;;;5075970;28;20172;-69
2021/03/07 01:45:39;;;;;;;0.40;0.40;;;-1.90;99.90;;;;;;5073978;28;20197;-69
2021/03/07 01:48:07;;;;;;;0.50;0.50;;;-2.00;99.90;;;;;;5075761;28;20766;-70
2021/03/07 01:50:35;;;;;;;0.40;0.40;;;-2.00;99.90;;;;;;5063623;28;20173;-70
2021/03/07 01:53:02;;;;;;;0.40;0.40;;;-2.10;99.90;;;;;;5055890;28;20740;-69
2021/03/07 01:55:31;;;;;;;0.40;0.40;;;-2.10;99.90;;;;;;5059554;28;20299;-70
2021/03/07 01:58:15;;;;;;;0.40;0.40;;;-2.10;99.90;;;;;;5060558;28;20277;-71
2021/03/07 02:00:41;;;;;;;0.40;0.40;;;-2.10;99.90;;;;;;5075164;28;20599;-69
2021/03/07 02:03:07;;;;;;;0.40;0.40;;;-2.10;99.90;;;;;;5075800;28;20252;-69
2021/03/07 02:05:33;;;;;;;0.37;0.37;;;-2.00;99.90;;;;;;5073608;28;20204;-70
2021/03/07 02:08:00;;;;;;;0.40;0.40;;;-2.00;99.90;;;;;;5075912;28;20411;-69
2021/03/07 02:10:28;;;;;;;0.30;0.30;;;-2.10;99.90;;;;;;5071262;28;20415;-70
2021/03/07 02:12:58;;;;;;;0.50;0.50;;;-2.00;99.90;;;;;;5055507;28;20209;-69
2021/03/07 02:15:26;;;;;;;0.40;0.40;;;-2.00;99.90;;;;;;5057604;28;20228;-70
2021/03/07 02:17:51;;;;;;;0.30;0.30;;;-2.00;99.90;;;;;;5075455;28;20199;-70
2021/03/07 02:20:20;;;;;;;0.40;0.40;;;-2.00;99.90;;;;;;5074283;28;20196;-69
2021/03/07 02:23:12;;;;;;;0.40;0.40;;;-2.00;99.90;;;;;;5055573;28;20180;-69
2021/03/07 02:25:38;;;;;;;0.30;0.30;;;-2.00;99.90;;;;;;5066461;28;20189;-69
2021/03/07 02:28:08;;;;;;;0.40;0.40;;;-2.10;99.90;;;;;;5055317;28;20219;-69
2021/03/07 02:30:35;;;;;;;0.38;0.38;;;-2.10;99.90;;;;;;5059348;28;20783;-70
2021/03/07 02:33:22;;;;;;;0.40;0.40;;;-2.10;99.90;;;;;;5074794;28;20253;-69
2021/03/07 02:35:58;;;;;;;0.40;0.40;;;-2.10;99.90;;;;;;5059429;28;20205;-69
2021/03/07 02:38:25;;;;;;;0.30;0.30;;;-2.20;99.90;;;;;;5055344;28;20168;-69
2021/03/07 02:40:55;;;;;;;0.40;0.40;;;-2.20;99.90;;;;;;5068044;28;20183;-68
2021/03/07 02:43:22;;;;;;;0.30;0.30;;;-2.20;99.90;;;;;;5073873;28;20260;-68
2021/03/07 02:45:48;;;;;;;0.38;0.38;;;-2.30;99.90;;;;;;5060327;28;20244;-69
2021/03/07 02:48:20;;;;;;;0.40;0.40;;;-2.30;99.90;;;;;;5066451;28;20184;-69
2021/03/07 02:50:47;;;;;;;0.40;0.40;;;-2.30;99.90;;;;;;5074331;28;20176;-67
2021/03/07 02:53:21;;;;;;;0.40;0.40;;;-2.40;99.90;;;;;;5075208;28;20668;-69
2021/03/07 02:55:51;;;;;;;0.70;0.70;;;-2.40;99.90;;;;;;5060920;28;20205;-69
2021/03/07 02:58:18;;;;;;;0.35;0.35;;;-2.40;99.90;;;;;;5056152;28;20538;-69
2021/03/07 03:00:51;;;;;;;0.40;0.40;;;-2.40;99.90;;;;;;5065553;28;20173;-70
2021/03/07 03:03:21;;;;;;;0.40;0.40;;;-2.40;99.90;;;;;;5074877;28;20165;-69
2021/03/07 03:05:48;;;;;;;0.30;0.30;;;-2.40;99.90;;;;;;5061619;28;20203;-71
2021/03/07 03:08:16;;;;;;;0.63;0.63;;;-2.40;99.90;;;;;;5067864;28;20173;-71
2021/03/07 03:10:42;;;;;;;0.50;0.50;;;-2.50;99.90;;;;;;5063214;28;20177;-70
2021/03/07 03:13:08;;;;;;;0.40;0.40;;;-2.50;99.90;;;;;;5054321;28;20196;-70
2021/03/07 03:15:35;;;;;;;0.40;0.40;;;-2.50;99.90;;;;;;5056487;28;20197;-70
2021/03/07 03:18:01;;;;;;;1.70;1.60;;;-2.40;99.90;;;;;;5054527;28;20165;-69
2021/03/07 03:20:28;;;;;;;0.40;0.40;;;-2.40;99.90;;;;;;5062681;28;20169;-69
2021/03/07 03:22:54;;;;;;;0.35;0.35;;;-2.40;99.90;;;;;;5061175;28;20180;-70
2021/03/07 03:25:19;;;;;;;0.50;0.50;;;-2.40;99.90;;;;;;5060530;28;20583;-71
2021/03/07 03:27:45;;;;;;;0.30;0.30;;;-2.40;99.90;;;;;;5074131;28;20891;-70
2021/03/07 03:30:17;;;;;;;0.40;0.40;;;-2.40;99.90;;;;;;5070596;28;20258;-69
2021/03/07 03:32:43;;;;;;;0.40;0.40;;;-2.40;99.90;;;;;;5064756;28;20205;-70
2021/03/07 03:35:14;;;;;;;0.40;0.40;;;-2.40;99.90;;;;;;5057861;28;20725;-69
2021/03/07 03:37:44;;;;;;;0.50;0.50;;;-2.40;99.90;;;;;;5073561;28;20414;-69
2021/03/07 03:40:17;;;;;;;0.40;0.40;;;-2.40;99.90;;;;;;5073192;28;20218;-71
2021/03/07 03:42:45;;;;;;;0.50;0.50;;;-2.40;99.90;;;;;;5074292;28;20193;-71
2021/03/07 03:45:11;;;;;;;0.40;0.40;;;-2.40;99.90;;;;;;5071772;28;20239;-71
2021/03/07 03:47:42;;;;;;;0.50;0.50;;;-2.50;99.90;;;;;;5073868;28;20171;-71
2021/03/07 03:50:11;;;;;;;0.40;0.40;;;-2.60;99.90;;;;;;5070995;28;20254;-70
2021/03/07 03:52:38;;;;;;;0.30;0.30;;;-2.60;99.90;;;;;;5053674;28;20727;-70
2021/03/07 03:55:16;;;;;;;0.30;0.30;;;-2.60;99.90;;;;;;5067327;28;20203;-70
2021/03/07 03:57:45;;;;;;;0.45;0.45;;;-2.50;99.90;;;;;;5053900;28;20170;-70
2021/03/07 04:00:16;;;;;;;0.43;0.43;;;-2.60;99.90;;;;;;5055481;28;20543;-69
2021/03/07 04:02:43;;;;;;;0.50;0.50;;;-2.60;99.90;;;;;;5073668;28;20222;-69
2021/03/07 04:05:10;;;;;;;0.40;0.40;;;-2.60;99.90;;;;;;5071646;28;20191;-70
2021/03/07 04:07:38;;;;;;;0.40;0.40;;;-2.70;99.90;;;;;;5053916;28;20571;-69
2021/03/07 04:10:06;;;;;;;0.40;0.40;;;-2.80;99.90;;;;;;5071565;28;20204;-70
2021/03/07 04:12:32;;;;;;;0.40;0.40;;;-2.70;99.90;;;;;;5054371;28;20205;-70
2021/03/07 04:14:59;;;;;;;0.40;0.40;;;-2.70;99.90;;;;;;5052962;28;20194;-70
2021/03/07 04:17:26;;;;;;;0.30;0.30;;;-2.70;99.90;;;;;;5053524;28;20176;-71
2021/03/07 04:19:52;;;;;;;0.50;0.50;;;-2.70;99.90;;;;;;5052070;28;20223;-71
2021/03/07 04:22:19;;;;;;;0.45;0.45;;;-2.80;99.90;;;;;;5054383;28;20200;-71
2021/03/07 04:24:46;;;;;;;0.30;0.30;;;-2.80;99.90;;;;;;5052821;28;20176;-69
2021/03/07 04:27:13;;;;;;;0.40;0.40;;;-2.80;99.90;;;;;;5061343;28;20177;-70
2021/03/07 04:29:40;;;;;;;0.95;0.95;;;-2.90;99.90;;;;;;5053402;28;20172;-71
2021/03/07 04:32:06;;;;;;;0.30;0.30;;;-2.90;99.90;;;;;;5066988;28;20526;-70
2021/03/07 04:34:34;;;;;;;4.10;2.40;;;-3.00;99.90;;;;;;5064461;28;20177;-69
2021/03/07 04:37:01;;;;;;;0.40;0.40;;;-3.00;99.90;;;;;;5051847;28;20189;-70
2021/03/07 04:39:27;;;;;;;0.40;0.40;;;-3.00;99.90;;;;;;5058518;28;20169;-70
2021/03/07 04:41:53;;;;;;;0.32;0.32;;;-3.10;99.90;;;;;;5072942;28;20169;-70
2021/03/07 04:44:19;;;;;;;0.50;0.50;;;-3.10;99.90;;;;;;5066848;28;20173;-70
2021/03/07 04:46:44;;;;;;;0.30;0.30;;;-3.10;99.90;;;;;;5053060;28;20227;-70
2021/03/07 04:49:10;;;;;;;0.40;0.40;;;-3.00;99.90;;;;;;5056833;28;20169;-68
2021/03/07 04:51:36;;;;;;;1.50;1.50;;;-3.00;99.90;;;;;;5069771;28;20223;-69
2021/03/07 04:54:02;;;;;;;0.40;0.40;;;-3.10;99.90;;;;;;5058902;28;20276;-68
2021/03/07 04:56:29;;;;;;;0.40;0.40;;;-3.10;99.90;;;;;;5076893;28;20208;-66
2021/03/07 04:58:55;;;;;;;0.40;0.40;;;-3.10;99.90;;;;;;5075768;28;20199;-68
2021/03/07 05:01:21;;;;;;;0.45;0.45;;;-3.10;99.90;;;;;;5056878;28;20165;-69
2021/03/07 05:03:47;;;;;;;0.40;0.40;;;-3.10;99.90;;;;;;5056492;28;20177;-70
2021/03/07 05:06:13;;;;;;;0.50;0.50;;;-3.10;99.90;;;;;;5071179;28;20534;-69
2021/03/07 05:08:39;;;;;;;0.30;0.30;;;-3.10;99.90;;;;;;5057996;28;20166;-71
2021/03/07 05:11:05;;;;;;;0.40;0.40;;;-3.10;99.90;;;;;;5076536;28;20425;-69
2021/03/07 05:13:30;;;;;;;1.73;1.47;;;-3.10;99.90;;;;;;5076075;28;20201;-69
2021/03/07 05:15:56;;;;;;;0.40;0.40;;;-3.20;99.90;;;;;;5056931;28;20268;-68
2021/03/07 05:18:22;;;;;;;0.30;0.30;;;-3.20;99.90;;;;;;5076615;28;20628;-69
2021/03/07 05:20:48;;;;;;;0.40;0.40;;;-3.20;99.90;;;;;;5058429;28;20470;-69
2021/03/07 05:23:13;;;;;;;0.40;0.40;;;-3.20;99.90;;;;;;5056514;28;20197;-68
2021/03/07 05:25:39;;;;;;;0.37;0.37;;;-3.20;99.90;;;;;;5071617;28;20664;-69
2021/03/07 05:28:05;;;;;;;0.40;0.40;;;-3.20;99.90;;;;;;5076549;28;20181;-68
2021/03/07 05:30:31;;;;;;;0.60;0.60;;;-3.30;99.90;;;;;;5060656;28;20414;-68
2021/03/07 05:32:57;;;;;;;0.50;0.50;;;-3.20;99.90;;;;;;5056339;28;20254;-70
2021/03/07 05:35:24;;;;;;;0.40;0.40;;;-3.20;99.90;;;;;;5069270;28;20189;-68
2021/03/07 05:37:50;;;;;;;0.40;0.40;;;-3.20;99.90;;;;;;5076272;28;20165;-68
2021/03/07 05:40:16;;;;;;;0.30;0.30;;;-3.20;99.90;;;;;;5062461;28;20172;-68
2021/03/07 05:42:42;;;;;;;0.40;0.40;;;-3.20;99.90;;;;;;5056270;28;20181;-68
2021/03/07 05:45:09;;;;;;;0.40;0.40;;;-3.30;99.90;;;;;;5057056;28;20545;-69
2021/03/07 05:47:35;;;;;;;0.30;0.30;;;-3.20;99.90;;;;;;5056127;28;20173;-68
2021/03/07 05:50:01;;;;;;;0.40;0.40;;;-3.20;99.90;;;;;;5073013;28;20180;-68
2021/03/07 05:52:26;;;;;;;0.40;0.40;;;-3.10;99.90;;;;;;5076064;28;20192;-68
2021/03/07 05:54:53;;;;;;;0.40;0.40;;;-3.10;99.90;;;;;;5058456;28;20412;-68
2021/03/07 05:57:23;;;;;;;0.50;0.50;;;-3.20;99.90;;;;;;5054839;28;20268;-69
2021/03/07 05:59:50;;;;;;;0.40;0.40;;;-3.20;99.90;;;;;;5068603;28;20646;-68
2021/03/07 06:02:16;;;;;;;1.35;1.35;;;-3.20;99.90;;;;;;5074392;28;20169;-69
2021/03/07 06:04:54;;;;;;;0.40;0.40;;;-3.20;99.90;;;;;;5058728;28;20178;-70
2021/03/07 06:07:20;;;;;;;0.40;0.40;;;-3.10;99.90;;;;;;5053528;28;20199;-69
2021/03/07 06:09:47;;;;;;;1.52;1.50;;;-3.00;99.90;;;;;;5069414;28;20242;-70
2021/03/07 06:12:18;;;;;;;0.50;0.50;;;-2.90;99.90;;;;;;5074492;28;20239;-69
2021/03/07 06:14:59;;;;;;;0.40;0.40;;;-2.90;99.90;;;;;;5058963;28;20248;-69
2021/03/07 06:17:37;;;;;;;0.45;0.45;;;-2.90;99.90;;;;;;5054613;28;20165;-68
2021/03/07 06:20:05;;;;;;;0.40;0.40;;;-2.70;99.90;;;;;;5055312;28;20637;-69
2021/03/07 06:22:32;;;;;;;0.50;0.50;;;-2.60;99.90;;;;;;5056252;28;20181;-70
2021/03/07 06:24:59;;;;;;;0.40;0.40;;;-2.40;99.90;;;;;;5060338;28;20538;-68
2021/03/07 06:27:27;;;;;;;0.40;0.40;;;-2.00;99.90;;;;;;5074302;28;20168;-67
2021/03/07 06:30:03;;;;;;;0.40;0.40;;;-1.80;99.90;;;;;;5073395;28;20183;-68
2021/03/07 06:32:34;;;;;;;0.40;0.40;;;-1.40;99.90;;;;;;5072558;28;20196;-69
2021/03/07 06:35:00;;;;;;;0.40;0.40;;;-1.10;99.90;;;;;;5054819;28;20944;-67
2021/03/07 06:37:26;;;;;;;0.40;0.40;;;-0.80;99.90;;;;;;5059713;28;20526;-67
2021/03/07 06:39:52;;;;;;;0.40;0.40;;;-0.40;99.90;;;;;;5074154;28;20166;-69
2021/03/07 06:42:19;;;;;;;0.30;0.30;;;-0.10;99.90;;;;;;5073524;28;20418;-70
2021/03/07 06:44:54;;;;;;;0.52;0.52;;;0.20;99.90;;;;;;5072677;28;20609;-69
2021/03/07 06:47:20;;;;;;;0.40;0.40;;;0.70;99.90;;;;;;5073631;28;20170;-66
2021/03/07 06:49:46;;;;;;;0.40;0.40;;;1.30;99.90;;;;;;5055099;28;20268;-68
2021/03/07 06:52:16;;;;;;;0.67;0.67;;;1.80;98.90;;;;;;5053955;28;20447;-68
2021/03/07 06:55:00;;;;;;;0.40;0.40;;;2.30;97.80;;;;;;5053459;28;20440;-69
2021/03/07 06:57:41;;;;;;;0.30;0.30;;;2.60;95.90;;;;;;5110649;27;20621;-68
2021/03/07 07:00:08;;;;;;;0.50;0.50;;;3.00;95.50;;;;;;5110985;28;20171;-67
2021/03/07 07:02:33;;;;;;;0.70;0.70;;;3.30;94.20;;;;;;5111106;28;20184;-67
2021/03/07 07:04:59;;;;;;;0.30;0.30;;;3.40;93.70;;;;;;5107413;28;20195;-68
2021/03/07 07:07:25;;;;;;;0.30;0.30;;;3.50;93.00;;;;;;5090741;28;20175;-66
2021/03/07 07:10:06;;;;;;;0.55;0.55;;;3.70;93.00;;;;;;5090108;28;20276;-67
2021/03/07 07:12:32;;;;;;;0.40;0.40;;;3.90;92.30;;;;;;5088369;28;20571;-67
2021/03/07 07:15:08;;;;;;;0.30;0.30;;;4.40;91.90;;;;;;5085025;28;20193;-68
2021/03/07 07:17:35;;;;;;;0.40;0.40;;;4.90;90.60;;;;;;5068841;28;20463;-67
2021/03/07 07:20:01;;;;;;;0.30;0.30;;;5.30;89.70;;;;;;5079912;28;20198;-68
2021/03/07 07:22:27;;;;;;;0.30;0.30;;;5.40;87.80;;;;;;5089992;28;20638;-66
2021/03/07 07:24:53;;;;;;;0.87;0.87;;;5.50;86.40;;;;;;5081616;28;20180;-67
2021/03/07 07:27:20;;;;;;;0.30;0.30;;;5.80;87.10;;;;;;5087084;28;20853;-67
2021/03/07 07:29:46;;;;;;;2.55;1.40;;;6.00;85.70;;;;;;5090201;28;20529;-66
2021/03/07 07:32:17;;;;;;;0.37;0.37;;;6.30;86.00;;;;;;5089913;28;20168;-66
2021/03/07 07:34:57;;;;;;;0.40;0.40;;;6.70;81.60;;;;;;5086061;28;20415;-66
2021/03/07 07:37:33;;;;;;;0.50;0.50;;;7.20;80.70;;;;;;5068353;28;20219;-64
2021/03/07 07:40:00;;;;;;;0.80;0.70;;;7.70;77.50;;;;;;5070023;28;20247;-67
2021/03/07 07:42:31;;;;;;;0.60;0.57;;;8.20;77.50;;;;;;5070138;28;20640;-67
2021/03/07 07:44:59;;;;;;;0.50;0.30;;;8.70;75.00;;;;;;5067973;28;20206;-67
2021/03/07 07:47:25;;;;;;;1.70;0.83;;;9.30;72.60;;;;;;5089404;28;20503;-68
2021/03/07 07:49:53;;;;;;;2.30;0.60;;;9.80;71.40;;;;;;5089762;28;20450;-67
2021/03/07 07:52:21;;;;;;;2.40;0.57;;;10.50;64.50;;;;;;5069555;28;21011;-71
2021/03/07 07:54:51;;;;;;;3.17;1.07;;;11.20;62.30;;;;;;5069125;28;20540;-68
2021/03/07 07:57:32;;;;;;;2.30;0.50;;;11.80;61.50;;;;;;5070223;28;20594;-66
2021/03/07 07:59:59;;;;;;;2.40;0.50;;;12.50;59.80;;;;;;5070630;28;20447;-67
2021/03/07 08:02:55;;;;;;;2.50;1.27;;;13.10;57.70;;;;;;5069492;28;20558;-67
2021/03/07 08:05:21;;;;;;;2.37;0.40;;;13.70;55.00;;;;;;5066730;28;20507;-66
2021/03/07 08:08:05;;;;;;;2.80;0.50;;;14.00;53.50;;;;;;5072163;28;20440;-67
2021/03/07 08:10:40;;;;;;;2.80;0.40;;;13.90;53.00;;;;;;5063158;28;20180;-69
2021/03/07 08:13:10;;;;;;;2.80;0.30;;;13.80;52.70;;;;;;5064663;28;20427;-68
2021/03/07 08:15:40;;;;;;;3.40;0.97;;;13.80;52.90;;;;;;5062244;28;20940;-69
2021/03/07 08:18:05;;;;;;;2.80;0.50;;;13.70;52.30;;;;;;5075792;28;20738;-69
2021/03/07 08:20:40;;;;;;;4.50;1.10;;;13.90;52.20;;;;;;5070561;28;20439;-65
2021/03/07 08:23:16;;;;;;;2.70;0.40;;;14.20;51.70;;;;;;5075516;28;20165;-66
2021/03/07 08:25:51;;;;;;;3.10;0.70;;;14.60;50.80;;;;;;5067524;28;20941;-68
2021/03/07 08:28:25;;;;;;;2.70;0.37;;;14.70;50.10;;;;;;5055691;28;20407;-67
2021/03/07 08:30:52;;;;;;;2.90;0.70;;;14.80;50.40;;;;;;5064447;28;20791;-66
2021/03/07 08:33:23;;;;;;;3.10;1.23;;;14.60;50.20;;;;;;5067591;28;20427;-67
2021/03/07 08:36:18;;;;;;;3.83;0.87;;;14.30;50.20;;;;;;5073330;28;20469;-67
2021/03/07 08:38:52;;;;;;;3.73;1.07;;;14.10;50.40;;;;;;5064512;28;20416;-66
2021/03/07 08:41:21;;;;;;;2.63;0.30;;;13.90;50.20;;;;;;5055570;28;20392;-67
2021/03/07 08:43:57;;;;;;;2.63;0.30;;;13.60;50.60;;;;;;5055946;28;20408;-67
2021/03/07 08:46:26;;;;;;;2.60;0.40;;;13.50;51.20;;;;;;5057187;28;21108;-66
2021/03/07 08:49:06;;;;;;;2.70;0.47;;;13.70;51.50;;;;;;5064378;28;20415;-67
2021/03/07 08:51:37;;;;;;;2.60;0.30;;;14.20;49.90;;;;;;5055299;28;20800;-67
2021/03/07 08:54:04;;;;;;;2.60;0.33;;;14.00;49.20;;;;;;5064700;28;20932;-67
2021/03/07 08:56:30;;;;;;;3.47;1.17;;;13.60;49.60;;;;;;5072856;28;20964;-67
2021/03/07 08:58:57;;;;;;;2.60;0.30;;;13.00;50.30;;;;;;5064601;28;20428;-67
2021/03/07 09:01:23;;;;;;;4.87;1.40;;;12.60;51.10;;;;;;5056000;28;20781;-68
2021/03/07 09:04:09;;;;;;;2.60;0.50;;;12.20;51.60;;;;;;5062604;28;20429;-67
2021/03/07 09:06:39;;;;;;;2.60;0.40;;;12.30;52.50;;;;;;5074839;28;20802;-67
2021/03/07 09:09:16;;;;;;;2.60;0.50;;;12.80;52.40;;;;;;5071138;28;20419;-67
2021/03/07 09:11:58;;;;;;;2.80;0.50;;;13.40;52.30;;;;;;5074769;28;20405;-67
2021/03/07 09:14:30;;;;;;;2.57;0.30;;;14.00;51.30;;;;;;5056546;28;20420;-67
2021/03/07 09:16:57;;;;;;;2.53;0.40;;;14.70;50.70;;;;;;5064840;28;20463;-67
2021/03/07 09:19:31;;;;;;;2.50;0.30;;;15.40;50.00;;;;;;5057786;28;20921;-67
2021/03/07 09:22:22;;;;;;;2.50;0.47;;;15.60;48.30;;;;;;5063395;28;20414;-67
2021/03/07 09:24:56;;;;;;;3.00;0.80;;;16.00;48.80;;;;;;5053233;28;20945;-67
2021/03/07 09:27:26;;;;;;;2.50;0.37;;;16.10;48.00;;;;;;5053528;28;20418;-67
2021/03/07 09:30:14;;;;;;;2.60;0.80;;;16.50;47.70;;;;;;5073572;28;20419;-67
2021/03/07 09:32:45;;;;;;;2.70;0.90;;;16.60;47.60;;;;;;5072628;28;20431;-67
2021/03/07 09:35:18;;;;;;;2.37;0.50;;;16.60;47.40;;;;;;5053995;28;20428;-66
2021/03/07 09:37:53;;;;;;;2.50;0.83;;;17.00;47.30;;;;;;5069719;28;20451;-67
2021/03/07 09:40:19;;;;;;;3.90;0.50;;;16.40;46.50;;;;;;5054465;28;20401;-66
2021/03/07 09:42:53;;;;;;;2.60;0.60;;;16.60;47.70;;;;;;5055954;28;20474;-67
2021/03/07 09:45:19;;;;;;;3.77;0.93;;;16.90;47.40;;;;;;5073815;28;20188;-67
2021/03/07 09:47:44;;;;;;;2.20;0.40;;;16.90;46.60;;;;;;5072482;28;20410;-66
2021/03/07 09:50:11;;;;;;;2.83;0.80;;;17.20;46.50;;;;;;5054019;28;20181;-66
2021/03/07 09:52:36;;;;;;;2.30;0.60;;;17.40;46.20;;;;;;5055580;28;20664;-67
2021/03/07 09:55:02;;;;;;;2.10;0.37;;;17.30;46.40;;;;;;5073495;28;20416;-68
2021/03/07 09:57:28;;;;;;;2.77;0.70;;;17.40;46.10;;;;;;5072457;28;20313;-68
2021/03/07 09:59:54;;;;;;;2.50;1.23;;;17.30;46.80;;;;;;5053488;28;20482;-66
2021/03/07 10:02:20;;;;;;;2.60;0.83;;;17.10;46.90;;;;;;5066196;28;20605;-67
2021/03/07 10:04:47;;;;;;;2.47;1.13;;;17.20;47.50;;;;;;5053901;28;20675;-66
2021/03/07 10:07:15;;;;;;;2.30;0.60;;;17.20;47.70;;;;;;5052612;28;20433;-66
2021/03/07 10:10:10;;;;;;;2.10;0.50;;;17.40;48.00;;;;;;5070434;28;20466;-66
2021/03/07 10:12:45;;;;;;;4.97;1.40;;;17.00;47.60;;;;;;5057121;28;20449;-67
2021/03/07 10:15:24;;;;;;;3.77;1.87;;;16.90;47.60;;;;;;5073418;28;20430;-68
2021/03/07 10:17:50;;;;;;;2.10;0.40;;;16.90;47.50;;;;;;5068359;28;20416;-68
2021/03/07 10:20:17;;;;;;;2.60;0.77;;;16.60;48.80;;;;;;5052570;28;20763;-69
2021/03/07 10:22:44;;;;;;;2.30;0.50;;;16.70;49.60;;;;;;5055068;28;20396;-66
2021/03/07 10:25:29;;;;;;;3.07;1.60;;;16.90;48.90;;;;;;5065629;28;20856;-66
2021/03/07 10:28:12;;;;;;;2.10;0.70;;;17.30;49.50;;;;;;5053872;28;20774;-66
2021/03/07 10:30:43;;;;;;;2.40;1.03;;;17.60;48.60;;;;;;5052480;28;20404;-68
2021/03/07 10:33:15;;;;;;;2.30;0.70;;;16.60;48.50;;;;;;5067725;28;20496;-67
2021/03/07 10:36:02;;;;;;;2.17;0.50;;;15.40;49.30;;;;;;5071508;28;20460;-67
2021/03/07 10:38:29;;;;;;;2.20;0.50;;;14.60;50.40;;;;;;5056474;28;20427;-67
2021/03/07 10:40:55;;;;;;;3.27;1.73;;;14.00;51.70;;;;;;5067094;28;20411;-67
2021/03/07 10:43:22;;;;;;;4.17;1.30;;;13.10;53.50;;;;;;5056741;28;20416;-67
2021/03/07 10:45:49;;;;;;;2.30;0.57;;;12.30;54.60;;;;;;5052907;28;20508;-68
2021/03/07 10:48:18;;;;;;;2.20;0.77;;;11.80;55.40;;;;;;5067353;28;21012;-68
2021/03/07 10:50:49;;;;;;;2.23;0.80;;;11.50;55.80;;;;;;5072053;28;20809;-66
2021/03/07 10:53:17;;;;;;;2.10;0.50;;;11.10;57.20;;;;;;5058200;28;20430;-68
2021/03/07 10:55:52;;;;;;;2.00;0.30;;;11.20;57.80;;;;;;5069095;28;20523;-68
2021/03/07 10:58:20;;;;;;;2.50;0.50;;;11.20;58.30;;;;;;5058573;28;20479;-67
2021/03/07 11:00:45;;;;;;;2.20;0.43;;;11.30;58.60;;;;;;5053308;28;20399;-67
2021/03/07 11:03:11;;;;;;;2.30;0.40;;;11.20;58.60;;;;;;5063622;28;20781;-68
2021/03/07 11:05:37;;;;;;;2.50;1.00;;;11.30;58.80;;;;;;5072469;28;20190;-67
2021/03/07 11:08:02;;;;;;;2.40;0.40;;;11.40;58.70;;;;;;5061429;28;20419;-68
2021/03/07 11:10:28;;;;;;;5.03;1.10;;;11.70;58.10;;;;;;5054090;28;20234;-68
2021/03/07 11:12:54;;;;;;;2.40;0.33;;;12.00;57.90;;;;;;5062667;28;20479;-68
2021/03/07 11:15:20;;;;;;;2.40;0.30;;;12.10;58.10;;;;;;5087920;28;20198;-67
2021/03/07 11:17:46;;;;;;;2.60;0.83;;;12.40;57.80;;;;;;5064627;28;20420;-68
2021/03/07 11:20:12;;;;;;;2.60;1.00;;;12.60;57.20;;;;;;5051735;28;20249;-67
2021/03/07 11:22:39;;;;;;;2.40;0.50;;;12.60;56.80;;;;;;5059371;28;20528;-68
2021/03/07 11:25:06;;;;;;;2.40;0.67;;;12.70;55.60;;;;;;5070730;28;20550;-68
2021/03/07 11:27:32;;;;;;;2.30;0.40;;;12.50;56.00;;;;;;5067664;28;20426;-68
2021/03/07 11:29:58;;;;;;;2.37;0.30;;;12.30;56.70;;;;;;5052840;28;20404;-68
2021/03/07 11:32:23;;;;;;;3.63;1.13;;;12.30;57.30;;;;;;5053823;28;20414;-67
2021/03/07 11:34:49;;;;;;;2.30;0.40;;;11.70;56.70;;;;;;5052440;28;20937;-68
2021/03/07 11:37:15;;;;;;;2.40;0.40;;;11.40;56.90;;;;;;5054308;28;20229;-67
2021/03/07 11:39:40;;;;;;;3.37;0.60;;;11.00;58.40;;;;;;5066905;28;20205;-67
2021/03/07 11:42:06;;;;;;;2.50;0.43;;;10.90;58.80;;;;;;5068296;28;20176;-67
2021/03/07 11:44:32;;;;;;;3.45;0.80;;;10.70;59.70;;;;;;5056156;28;20171;-67
2021/03/07 11:46:58;;;;;;;2.70;0.87;;;10.70;59.50;;;;;;5058083;28;20292;-67
2021/03/07 11:49:24;;;;;;;2.60;0.80;;;10.60;59.10;;;;;;5056500;28;20415;-68
2021/03/07 11:51:50;;;;;;;2.60;0.50;;;10.50;60.10;;;;;;5057224;28;20399;-66
2021/03/07 11:54:15;;;;;;;2.57;0.60;;;10.40;61.90;;;;;;5075909;28;20176;-67
2021/03/07 11:56:41;;;;;;;2.70;1.00;;;10.40;60.90;;;;;;5075881;28;20576;-68
2021/03/07 11:59:07;;;;;;;2.50;0.40;;;10.50;61.50;;;;;;5066392;28;20180;-66
2021/03/07 12:01:33;;;;;;;2.50;0.40;;;10.40;60.70;;;;;;5076123;28;20207;-66
2021/03/07 12:03:59;;;;;;;2.60;0.77;;;10.30;60.80;;;;;;5057738;28;20647;-68
2021/03/07 12:06:25;;;;;;;2.60;0.70;;;10.10;60.80;;;;;;5057446;28;20181;-68
2021/03/07 12:08:51;;;;;;;2.50;0.30;;;10.00;61.00;;;;;;5072552;28;20322;-68
2021/03/07 12:11:18;;;;;;;2.50;0.50;;;10.00;60.10;;;;;;5075946;28;20255;-67
2021/03/07 12:13:44;;;;;;;2.50;0.40;;;10.00;60.50;;;;;;5060183;28;20427;-69
2021/03/07 12:16:10;;;;;;;2.80;1.10;;;9.90;62.60;;;;;;5055845;28;20355;-65
2021/03/07 12:18:37;;;;;;;2.47;0.30;;;9.80;63.70;;;;;;5067826;28;20176;-66
2021/03/07 12:21:04;;;;;;;2.45;0.30;;;9.70;62.80;;;;;;5073494;28;20173;-65
2021/03/07 12:23:30;;;;;;;2.50;0.40;;;9.60;62.40;;;;;;5055429;28;20177;-67
2021/03/07 12:25:56;;;;;;;2.50;0.50;;;9.50;63.40;;;;;;5055477;28;20192;-67
2021/03/07 12:28:22;;;;;;;2.50;0.43;;;9.50;64.70;;;;;;5064715;28;20338;-67
2021/03/07 12:30:48;;;;;;;2.50;0.60;;;9.40;64.80;;;;;;5074740;28;20179;-68
2021/03/07 12:33:13;;;;;;;2.60;0.67;;;9.30;64.30;;;;;;5055640;28;20493;-67
2021/03/07 12:35:39;;;;;;;2.40;0.30;;;9.20;65.20;;;;;;5055362;28;20280;-66
2021/03/07 12:38:05;;;;;;;2.50;0.50;;;9.20;65.00;;;;;;5056181;28;20203;-67
2021/03/07 12:40:31;;;;;;;2.50;0.40;;;9.30;65.20;;;;;;5055622;28;20635;-67
2021/03/07 12:42:56;;;;;;;2.50;0.40;;;9.40;64.30;;;;;;5072612;28;20173;-67
2021/03/07 12:45:22;;;;;;;2.50;0.50;;;9.40;64.30;;;;;;5066683;28;20197;-67
2021/03/07 12:47:48;;;;;;;2.83;0.83;;;9.50;65.10;;;;;;5055381;28;20539;-66
2021/03/07 12:50:14;;;;;;;3.17;0.93;;;9.60;64.10;;;;;;5055202;28;20415;-66
2021/03/07 12:52:39;;;;;;;4.83;2.00;;;9.60;63.60;;;;;;5055594;28;20177;-65
2021/03/07 12:55:06;;;;;;;2.50;0.30;;;9.60;64.50;;;;;;5054959;28;20444;-67